createdAt,value
2018-02-12T00:01:04.131Z,3.33
2018-02-12T00:03:31.801Z,3.25
2018-02-12T00:05:59.520Z,3.58
2018-02-12T00:08:27.038Z,4.00
2018-02-12T00:10:54.636Z,3.83
2018-02-12T00:13:22.202Z,3.90
2018-02-12T00:15:49.702Z,4.00
2018-02-12T00:18:17.174Z,3.35
2018-02-12T00:20:44.692Z,3.60
2018-02-12T00:23:12.277Z,3.33
2018-02-12T00:25:39.879Z,3.22
2018-02-12T00:28:07.367Z,2.97
2018-02-12T00:30:34.864Z,3.28
2018-02-12T00:33:02.389Z,3.25
2018-02-12T00:35:29.885Z,3.05
2018-02-12T00:37:57.399Z,2.65
2018-02-12T00:40:24.876Z,2.10
2018-02-12T00:42:53.003Z,2.40
2018-02-12T00:45:20.534Z,2.42
2018-02-12T00:47:48.031Z,1.80
2018-02-12T00:50:15.998Z,2.17
2018-02-12T00:52:43.614Z,1.60
2018-02-12T00:55:11.223Z,1.30
2018-02-12T00:57:38.724Z,1.80
2018-02-12T01:00:06.234Z,1.70
2018-02-12T01:02:33.731Z,1.70
2018-02-12T01:05:01.263Z,1.70
2018-02-12T01:07:28.789Z,1.40
2018-02-12T01:09:56.266Z,1.30
2018-02-12T01:12:23.760Z,1.42
2018-02-12T01:14:51.237Z,1.80
2018-02-12T01:17:18.741Z,1.60
2018-02-12T01:19:47.050Z,1.95
2018-02-12T01:22:14.674Z,1.98
2018-02-12T01:24:42.217Z,2.53
2018-02-12T01:27:09.867Z,2.45
2018-02-12T01:29:37.486Z,2.30
2018-02-12T01:32:05.053Z,2.35
2018-02-12T01:34:32.589Z,3.17
2018-02-12T01:37:00.064Z,3.47
2018-02-12T01:39:27.565Z,2.80
2018-02-12T01:41:55.133Z,3.70
2018-02-12T01:44:22.706Z,3.20
2018-02-12T01:46:50.186Z,3.00
2018-02-12T01:49:17.699Z,3.08
2018-02-12T01:51:45.228Z,3.87
2018-02-12T01:54:12.714Z,3.03
2018-02-12T01:56:40.293Z,3.92
2018-02-12T01:59:07.832Z,2.85
2018-02-12T02:01:35.349Z,2.95
2018-02-12T02:04:02.823Z,2.85
2018-02-12T02:06:30.336Z,2.95
2018-02-12T02:08:57.813Z,3.85
2018-02-12T02:11:25.330Z,3.00
2018-02-12T02:13:52.858Z,2.87
2018-02-12T02:16:20.335Z,3.15
2018-02-12T02:18:47.869Z,2.90
2018-02-12T02:21:15.359Z,2.95
2018-02-12T02:23:42.864Z,3.20
2018-02-12T02:26:10.339Z,3.40
2018-02-12T02:28:37.877Z,3.30
2018-02-12T02:31:05.355Z,2.90
2018-02-12T02:33:32.834Z,2.42
2018-02-12T02:36:00.342Z,2.78
2018-02-12T02:38:27.987Z,2.00
2018-02-12T02:40:55.571Z,2.80
2018-02-12T02:43:23.142Z,2.50
2018-02-12T02:45:50.736Z,3.15
2018-02-12T02:48:18.368Z,2.65
2018-02-12T02:50:45.932Z,3.35
2018-02-12T02:53:13.429Z,3.47
2018-02-12T02:55:40.902Z,3.95
2018-02-12T02:58:08.482Z,3.25
2018-02-12T03:00:36.064Z,2.72
2018-02-12T03:03:03.570Z,2.80
2018-02-12T03:05:31.145Z,2.87
2018-02-12T03:07:58.667Z,2.95
2018-02-12T03:10:26.641Z,2.72
2018-02-12T03:12:54.169Z,2.35
2018-02-12T03:15:21.854Z,2.60
2018-02-12T03:17:49.397Z,2.25
2018-02-12T03:20:16.990Z,2.17
2018-02-12T03:22:44.647Z,2.30
2018-02-12T03:25:12.244Z,2.12
2018-02-12T03:27:39.726Z,2.10
2018-02-12T03:30:07.224Z,1.65
2018-02-12T03:32:34.720Z,2.00
2018-02-12T03:35:02.260Z,1.75
2018-02-12T03:37:29.749Z,1.60
2018-02-12T03:39:57.258Z,1.70
2018-02-12T03:42:24.745Z,1.80
2018-02-12T03:44:52.224Z,1.40
2018-02-12T03:47:19.744Z,1.60
2018-02-12T03:49:47.220Z,1.60
2018-02-12T03:52:14.720Z,1.80
2018-02-12T03:54:42.236Z,1.45
2018-02-12T03:57:09.910Z,1.50
2018-02-12T03:59:37.383Z,1.90
2018-02-12T04:02:04.881Z,1.87
2018-02-12T04:04:32.381Z,2.05
2018-02-12T04:06:59.867Z,1.90
2018-02-12T04:09:27.982Z,1.95
2018-02-12T04:11:55.445Z,1.80
2018-02-12T04:14:22.995Z,1.85
2018-02-12T04:16:50.499Z,2.12
2018-02-12T04:19:18.021Z,2.10
2018-02-12T04:21:45.506Z,1.62
2018-02-12T04:24:13.242Z,2.33
2018-02-12T04:26:40.791Z,2.37
2018-02-12T04:29:08.293Z,1.85
2018-02-12T04:31:35.810Z,1.92
2018-02-12T04:34:03.308Z,2.20
2018-02-12T04:36:30.796Z,1.77
2018-02-12T04:38:58.292Z,2.00
2018-02-12T04:41:25.813Z,2.10
2018-02-12T04:43:53.333Z,1.80
2018-02-12T04:46:20.871Z,2.08
2018-02-12T04:48:48.996Z,2.20
2018-02-12T04:51:16.508Z,2.42
2018-02-12T04:53:44.604Z,2.08
2018-02-12T04:56:12.134Z,1.95
2018-02-12T04:58:39.626Z,2.20
2018-02-12T05:01:07.299Z,1.75
2018-02-12T05:03:34.798Z,2.30
2018-02-12T05:06:02.290Z,2.67
2018-02-12T05:08:29.765Z,2.35
2018-02-12T05:10:57.268Z,4.05
2018-02-12T05:13:24.747Z,2.47
2018-02-12T05:15:52.252Z,2.65
2018-02-12T05:18:19.796Z,2.30
2018-02-12T05:20:47.363Z,2.40
2018-02-12T05:23:14.866Z,2.00
2018-02-12T05:25:42.355Z,2.80
2018-02-12T05:28:09.921Z,2.62
2018-02-12T05:30:37.490Z,2.85
2018-02-12T05:33:04.990Z,2.67
2018-02-12T05:35:32.508Z,2.90
2018-02-12T05:38:00.029Z,2.60
2018-02-12T05:40:27.595Z,1.98
2018-02-12T05:42:55.142Z,2.33
2018-02-12T05:45:22.655Z,3.10
2018-02-12T05:47:50.149Z,2.00
2018-02-12T05:50:17.682Z,2.30
2018-02-12T05:52:45.698Z,2.75
2018-02-12T05:55:13.276Z,2.37
2018-02-12T05:57:40.782Z,2.65
2018-02-12T06:00:08.342Z,2.62
2018-02-12T06:02:35.829Z,2.60
2018-02-12T06:05:03.322Z,2.30
2018-02-12T06:07:30.842Z,4.05
2018-02-12T06:09:58.323Z,2.35
2018-02-12T06:12:25.840Z,2.90
2018-02-12T06:14:53.346Z,2.45
2018-02-12T06:17:20.958Z,2.95
2018-02-12T06:19:48.451Z,3.40
2018-02-12T06:22:15.958Z,2.95
2018-02-12T06:24:43.540Z,2.80
2018-02-12T06:27:11.016Z,3.05
2018-02-12T06:29:38.512Z,2.92
2018-02-12T06:32:05.982Z,3.47
2018-02-12T06:34:33.522Z,3.85
2018-02-12T06:37:01.014Z,3.20
2018-02-12T06:42:02.482Z,2.53
2018-02-12T06:44:29.996Z,3.22
2018-02-12T06:46:57.568Z,2.83
2018-02-12T06:49:25.110Z,2.83
2018-02-12T06:51:52.640Z,2.42
2018-02-12T06:54:20.144Z,3.00
2018-02-12T06:56:47.644Z,3.20
2018-02-12T06:59:15.132Z,2.75
2018-02-12T07:01:42.656Z,3.35
2018-02-12T07:04:10.142Z,2.70
2018-02-12T07:06:37.649Z,3.05
2018-02-12T07:09:05.154Z,2.65
2018-02-12T07:11:32.643Z,2.10
2018-02-12T07:14:00.145Z,2.90
2018-02-12T07:16:27.622Z,3.00
2018-02-12T07:18:55.159Z,2.92
2018-02-12T07:21:22.632Z,3.17
2018-02-12T07:23:50.105Z,4.00
2018-02-12T07:26:17.634Z,4.85
2018-02-12T07:28:45.127Z,5.03
2018-02-12T07:31:12.645Z,5.32
2018-02-12T07:33:40.117Z,3.97
2018-02-12T07:36:07.630Z,3.50
2018-02-12T07:38:35.145Z,3.65
2018-02-12T07:41:02.673Z,2.72
2018-02-12T07:43:30.177Z,3.20
2018-02-12T07:45:57.664Z,3.00
2018-02-12T07:48:25.174Z,2.90
2018-02-12T07:50:52.753Z,3.85
2018-02-12T07:53:20.255Z,4.80
2018-02-12T07:55:47.783Z,4.85
2018-02-12T07:58:15.899Z,5.07
2018-02-12T08:00:43.403Z,4.05
2018-02-12T08:03:10.915Z,3.30
2018-02-12T08:05:38.467Z,4.35
2018-02-12T08:08:06.089Z,4.90
2018-02-12T08:10:33.630Z,4.93
2018-02-12T08:13:01.142Z,3.72
2018-02-12T08:15:28.671Z,3.05
2018-02-12T08:17:56.164Z,3.28
2018-02-12T08:20:23.686Z,4.15
2018-02-12T08:22:51.199Z,2.62
2018-02-12T08:25:18.669Z,3.28
2018-02-12T08:27:46.170Z,3.50
2018-02-12T08:30:13.644Z,3.60
2018-02-12T08:32:41.149Z,4.00
2018-02-12T08:35:08.636Z,3.30
2018-02-12T08:37:36.163Z,3.70
2018-02-12T08:40:03.663Z,4.18
2018-02-12T08:42:31.157Z,3.70
2018-02-12T08:44:58.787Z,6.40
2018-02-12T08:47:26.279Z,4.40
2018-02-12T08:49:53.792Z,2.90
2018-02-12T08:52:21.297Z,3.80
2018-02-12T08:54:49.437Z,2.80
2018-02-12T08:57:17.312Z,3.25
2018-02-12T08:59:44.784Z,3.08
2018-02-12T09:02:12.377Z,2.80
2018-02-12T09:04:39.835Z,3.03
2018-02-12T09:07:07.380Z,2.80
2018-02-12T09:09:34.875Z,2.80
2018-02-12T09:12:02.384Z,3.33
2018-02-12T09:14:29.872Z,3.50
2018-02-12T09:16:57.450Z,2.42
2018-02-12T09:19:24.925Z,2.95
2018-02-12T09:21:52.411Z,2.65
2018-02-12T09:24:19.906Z,3.00
2018-02-12T09:26:47.405Z,2.95
2018-02-12T09:29:15.179Z,3.00
2018-02-12T09:31:42.684Z,2.65
2018-02-12T09:34:10.182Z,2.70
2018-02-12T09:36:37.690Z,3.08
2018-02-12T09:39:05.232Z,2.47
2018-02-12T09:41:32.760Z,2.28
2018-02-12T09:44:00.261Z,2.60
2018-02-12T09:46:27.886Z,2.42
2018-02-12T09:48:55.402Z,2.70
2018-02-12T09:51:22.988Z,2.40
2018-02-12T09:53:50.553Z,2.85
2018-02-12T09:56:18.140Z,2.97
2018-02-12T09:58:45.790Z,2.00
2018-02-12T10:01:13.388Z,2.70
2018-02-12T10:03:40.890Z,2.70
2018-02-12T10:06:08.519Z,2.50
2018-02-12T10:08:36.040Z,2.53
2018-02-12T10:11:03.533Z,2.72
2018-02-12T10:13:31.055Z,2.50
2018-02-12T10:15:58.580Z,2.40
2018-02-12T10:18:26.073Z,2.20
2018-02-12T10:20:53.729Z,2.80
2018-02-12T10:23:21.255Z,1.83
2018-02-12T10:25:48.796Z,2.20
2018-02-12T10:28:16.285Z,2.20
2018-02-12T10:30:43.794Z,2.30
2018-02-12T10:33:11.291Z,2.50
2018-02-12T10:35:38.862Z,2.35
2018-02-12T10:38:06.962Z,2.45
2018-02-12T10:40:34.507Z,2.10
2018-02-12T10:43:02.017Z,2.30
2018-02-12T10:45:29.516Z,2.22
2018-02-12T10:47:57.038Z,2.20
2018-02-12T10:50:24.540Z,2.45
2018-02-12T10:52:52.082Z,2.12
2018-02-12T10:55:19.570Z,2.40
2018-02-12T10:57:47.124Z,2.08
2018-02-12T11:00:14.611Z,2.00
2018-02-12T11:02:42.158Z,2.05
2018-02-12T11:05:09.646Z,2.03
2018-02-12T11:07:37.414Z,2.10
2018-02-12T11:10:04.924Z,2.10
2018-02-12T11:12:32.445Z,2.40
2018-02-12T11:14:59.950Z,1.95
2018-02-12T11:17:27.448Z,2.45
2018-02-12T11:19:54.974Z,2.75
2018-02-12T11:22:22.490Z,2.35
2018-02-12T11:24:50.008Z,2.35
2018-02-12T11:27:17.530Z,2.20
2018-02-12T11:29:45.020Z,2.60
2018-02-12T11:32:12.658Z,2.20
2018-02-12T11:34:40.145Z,2.50
2018-02-12T11:37:07.752Z,2.10
2018-02-12T11:39:35.286Z,2.60
2018-02-12T11:42:02.836Z,2.45
2018-02-12T11:44:30.368Z,2.62
2018-02-12T11:46:57.890Z,2.08
2018-02-12T11:49:25.414Z,2.37
2018-02-12T11:51:52.927Z,1.90
2018-02-12T11:54:20.452Z,2.00
2018-02-12T11:56:48.088Z,2.28
2018-02-12T11:59:15.611Z,2.20
2018-02-12T12:01:43.142Z,2.15
2018-02-12T12:04:10.714Z,2.90
2018-02-12T12:06:38.574Z,2.10
2018-02-12T12:09:06.130Z,2.70
2018-02-12T12:11:33.572Z,2.42
2018-02-12T12:14:01.159Z,2.80
2018-02-12T12:16:28.651Z,2.80
2018-02-12T12:18:56.170Z,2.55
2018-02-12T12:21:23.656Z,2.08
2018-02-12T12:23:51.204Z,2.30
2018-02-12T12:26:18.710Z,3.00
2018-02-12T12:28:46.203Z,2.70
2018-02-12T12:31:13.796Z,3.03
2018-02-12T12:33:41.308Z,2.75
2018-02-12T12:36:08.828Z,2.40
2018-02-12T12:38:36.320Z,2.85
2018-02-12T12:41:03.885Z,2.42
2018-02-12T12:43:31.462Z,2.15
2018-02-12T12:45:59.036Z,2.03
2018-02-12T12:48:26.576Z,2.37
2018-02-12T12:50:54.072Z,2.43
2018-02-12T12:53:21.635Z,2.37
2018-02-12T12:55:49.329Z,2.70
2018-02-12T12:58:16.846Z,1.83
2018-02-12T13:00:44.322Z,2.37
2018-02-12T13:03:11.852Z,1.97
2018-02-12T13:05:39.341Z,2.20
2018-02-12T13:08:06.856Z,1.97
2018-02-12T13:10:34.407Z,1.90
2018-02-12T13:13:01.924Z,2.10
2018-02-12T13:15:29.453Z,2.17
2018-02-12T13:17:56.971Z,2.50
2018-02-12T13:20:24.551Z,2.10
2018-02-12T13:22:52.036Z,2.53
2018-02-12T13:25:19.578Z,2.07
2018-02-12T13:27:47.082Z,1.90
2018-02-12T13:30:14.572Z,2.27
2018-02-12T13:32:42.144Z,2.07
2018-02-12T13:35:09.705Z,2.60
2018-02-12T13:37:37.327Z,2.10
2018-02-12T13:40:04.908Z,2.00
2018-02-12T13:42:33.474Z,2.40
2018-02-12T13:45:00.992Z,2.60
2018-02-12T13:47:28.516Z,4.03
2018-02-12T13:49:56.068Z,2.60
2018-02-12T13:52:23.590Z,3.30
2018-02-12T13:54:51.134Z,3.13
2018-02-12T13:57:18.638Z,2.57
2018-02-12T13:59:46.150Z,2.40
2018-02-12T14:02:13.621Z,2.20
2018-02-12T14:04:41.995Z,2.27
2018-02-12T14:07:09.949Z,2.80
2018-02-12T14:09:37.493Z,2.10
2018-02-12T14:12:04.983Z,2.20
2018-02-12T14:14:32.463Z,2.20
2018-02-12T14:16:59.956Z,1.87
2018-02-12T14:19:27.443Z,2.50
2018-02-12T14:21:54.956Z,2.17
2018-02-12T14:24:22.481Z,2.80
2018-02-12T14:26:50.023Z,3.10
2018-02-12T14:29:17.535Z,2.67
2018-02-12T14:31:45.036Z,2.60
2018-02-12T14:34:12.589Z,2.97
2018-02-12T14:36:40.188Z,2.80
2018-02-12T14:39:07.721Z,2.47
2018-02-12T14:41:35.933Z,2.67
2018-02-12T14:44:03.413Z,2.78
2018-02-12T14:46:30.982Z,2.65
2018-02-12T14:48:58.493Z,2.83
2018-02-12T14:51:26.040Z,3.10
2018-02-12T14:53:53.542Z,2.95
2018-02-12T14:56:21.046Z,3.20
2018-02-12T14:58:48.677Z,2.80
2018-02-12T15:01:16.187Z,2.97
2018-02-12T15:03:43.740Z,2.75
2018-02-12T15:06:11.232Z,3.50
2018-02-12T15:08:39.369Z,2.92
2018-02-12T15:11:06.880Z,3.20
2018-02-12T15:13:34.806Z,4.45
2018-02-12T15:16:02.414Z,2.08
2018-02-12T15:18:29.897Z,2.62
2018-02-12T15:20:57.420Z,2.50
2018-02-12T15:23:24.917Z,2.75
2018-02-12T15:25:52.929Z,2.15
2018-02-12T15:28:20.514Z,2.30
2018-02-12T15:30:48.666Z,2.55
2018-02-12T15:33:16.198Z,2.80
2018-02-12T15:35:43.691Z,2.50
2018-02-12T15:38:11.271Z,3.20
2018-02-12T15:40:38.779Z,3.30
2018-02-12T15:43:06.460Z,3.20
2018-02-12T15:45:33.965Z,7.03
2018-02-12T15:48:01.498Z,5.82
2018-02-12T15:50:29.035Z,3.45
2018-02-12T15:52:56.585Z,2.78
2018-02-12T15:55:24.082Z,3.03
2018-02-12T15:57:51.575Z,3.05
2018-02-12T16:00:19.109Z,3.50
2018-02-12T16:02:46.625Z,3.50
2018-02-12T16:05:14.162Z,3.25
2018-02-12T16:07:41.671Z,3.17
2018-02-12T16:10:09.200Z,3.55
2018-02-12T16:12:36.691Z,3.22
2018-02-12T16:15:04.326Z,5.00
2018-02-12T16:17:31.899Z,3.35
2018-02-12T16:19:59.419Z,3.60
2018-02-12T16:22:26.958Z,3.67
2018-02-12T16:24:54.509Z,3.33
2018-02-12T16:27:22.043Z,4.63
2018-02-12T16:29:49.571Z,3.87
2018-02-12T16:32:17.323Z,3.42
2018-02-12T16:34:44.884Z,4.47
2018-02-12T16:37:12.432Z,4.97
2018-02-12T16:39:40.024Z,3.70
2018-02-12T16:42:07.607Z,3.62
2018-02-12T16:44:35.140Z,3.25
2018-02-12T16:47:02.626Z,3.30
2018-02-12T16:49:30.198Z,3.80
2018-02-12T16:51:57.707Z,3.42
2018-02-12T16:54:25.286Z,3.97
2018-02-12T16:56:52.830Z,3.95
2018-02-12T16:59:20.408Z,4.20
2018-02-12T17:01:47.884Z,3.70
2018-02-12T17:04:15.437Z,4.32
2018-02-12T17:06:42.963Z,3.85
2018-02-12T17:09:10.983Z,4.50
2018-02-12T17:11:38.501Z,3.70
2018-02-12T17:14:06.028Z,3.87
2018-02-12T17:16:33.567Z,3.75
2018-02-12T17:19:01.064Z,3.62
2018-02-12T17:21:28.755Z,4.90
2018-02-12T17:23:56.310Z,4.10
2018-02-12T17:26:23.818Z,4.15
2018-02-12T17:28:51.332Z,4.80
2018-02-12T17:31:18.829Z,5.40
2018-02-12T17:33:46.354Z,4.70
2018-02-12T17:36:13.882Z,6.10
2018-02-12T17:38:43.273Z,5.10
2018-02-12T17:41:12.677Z,4.70
2018-02-12T17:43:42.091Z,4.55
2018-02-12T17:46:11.761Z,4.25
2018-02-12T17:48:41.452Z,3.90
2018-02-12T17:51:11.212Z,4.12
2018-02-12T17:53:40.399Z,4.95
2018-02-12T17:56:10.108Z,4.80
2018-02-12T17:58:39.207Z,5.60
2018-02-12T18:01:08.678Z,4.55
2018-02-12T18:03:37.704Z,5.20
2018-02-12T18:06:07.484Z,4.40
2018-02-12T18:08:37.426Z,4.15
2018-02-12T18:11:06.928Z,4.30
2018-02-12T18:13:36.522Z,4.03
2018-02-12T18:16:05.159Z,3.85
2018-02-12T18:18:34.775Z,3.90
2018-02-12T18:21:04.171Z,5.57
2018-02-12T18:23:33.712Z,5.10
2018-02-12T18:26:02.768Z,4.93
2018-02-12T18:28:30.398Z,4.87
2018-02-12T18:31:00.558Z,5.20
2018-02-12T18:33:29.983Z,5.15
2018-02-12T18:35:59.429Z,5.07
2018-02-12T18:38:28.713Z,4.62
2018-02-12T18:40:57.702Z,5.70
2018-02-12T18:43:26.644Z,6.12
2018-02-12T18:45:56.345Z,5.28
2018-02-12T18:48:25.983Z,6.43
2018-02-12T18:50:55.394Z,7.20
2018-02-12T18:53:25.073Z,9.02
2018-02-12T18:55:54.036Z,9.95
2018-02-12T18:58:23.941Z,10.85
2018-02-12T19:00:53.334Z,9.25
2018-02-12T19:03:22.869Z,10.15
2018-02-12T19:05:52.899Z,7.57
2018-02-12T19:08:22.574Z,7.50
2018-02-12T19:10:51.882Z,6.75
2018-02-12T19:13:20.855Z,7.40
2018-02-12T19:15:50.268Z,6.50
2018-02-12T19:18:19.944Z,6.10
2018-02-12T19:20:49.773Z,5.82
2018-02-12T19:23:18.839Z,5.90
2018-02-12T19:25:52.516Z,6.50
2018-02-12T19:28:21.760Z,6.00
2018-02-12T19:30:50.839Z,6.60
2018-02-12T19:33:20.330Z,5.40
2018-02-12T19:35:49.051Z,4.35
2018-02-12T19:38:18.532Z,5.35
2018-02-12T19:40:47.901Z,5.70
2018-02-12T19:43:17.568Z,5.00
2018-02-12T19:45:46.938Z,5.97
2018-02-12T19:48:16.591Z,6.03
2018-02-12T19:50:45.695Z,5.10
2018-02-12T19:53:19.217Z,5.47
2018-02-12T19:55:48.711Z,6.05
2018-02-12T19:58:18.320Z,5.40
2018-02-12T20:00:47.811Z,6.22
2018-02-12T20:03:17.010Z,5.20
2018-02-12T20:05:46.748Z,7.55
2018-02-12T20:08:15.495Z,9.27
2018-02-12T20:10:45.430Z,7.97
2018-02-12T20:13:15.319Z,7.50
2018-02-12T20:15:44.485Z,5.72
2018-02-12T20:18:14.181Z,6.00
2018-02-12T20:20:43.334Z,6.05
2018-02-12T20:23:12.763Z,5.60
2018-02-12T20:25:41.879Z,4.90
2018-02-12T20:28:11.471Z,5.10
2018-02-12T20:30:39.564Z,6.05
2018-02-12T20:33:09.211Z,5.55
2018-02-12T20:35:38.394Z,5.60
2018-02-12T20:38:08.805Z,5.70
2018-02-12T20:40:39.072Z,5.45
2018-02-12T20:43:09.143Z,5.57
2018-02-12T20:45:38.112Z,6.50
2018-02-12T20:48:07.723Z,7.70
2018-02-12T20:50:37.937Z,11.85
2018-02-12T20:53:08.014Z,12.65
2018-02-12T20:55:38.146Z,11.30
2018-02-12T20:58:08.137Z,10.20
2018-02-12T21:00:35.610Z,8.75
2018-02-12T21:03:03.131Z,6.22
2018-02-12T21:05:30.680Z,5.72
2018-02-12T21:07:58.259Z,5.57
2018-02-12T21:10:25.778Z,5.60
2018-02-12T21:12:53.260Z,5.40
2018-02-12T21:15:20.985Z,4.30
2018-02-12T21:17:48.520Z,7.55
2018-02-12T21:20:16.159Z,4.95
2018-02-12T21:22:43.766Z,5.45
2018-02-12T21:25:11.361Z,6.00
2018-02-12T21:27:38.937Z,5.90
2018-02-12T21:30:06.537Z,6.43
2018-02-12T21:32:34.112Z,6.15
2018-02-12T21:35:01.608Z,6.50
2018-02-12T21:37:29.127Z,5.40
2018-02-12T21:39:57.464Z,6.43
2018-02-12T21:42:25.561Z,5.28
2018-02-12T21:44:53.123Z,6.65
2018-02-12T21:47:20.755Z,6.25
2018-02-12T21:49:48.260Z,7.00
2018-02-12T21:52:15.777Z,5.80
2018-02-12T21:54:43.268Z,6.45
2018-02-12T21:57:11.486Z,5.75
2018-02-12T21:59:39.169Z,6.75
2018-02-12T22:02:07.126Z,5.97
2018-02-12T22:04:35.903Z,6.05
2018-02-12T22:07:04.988Z,5.97
2018-02-12T22:09:34.991Z,6.25
2018-02-12T22:12:08.521Z,5.60
2018-02-12T22:14:36.324Z,5.82
2018-02-12T22:17:03.939Z,5.80
2018-02-12T22:19:31.818Z,6.80
2018-02-12T22:21:59.611Z,6.25
2018-02-12T22:24:27.417Z,6.60
2018-02-12T22:26:55.726Z,6.50
2018-02-12T22:29:23.375Z,6.15
2018-02-12T22:31:50.906Z,5.62
2018-02-12T22:34:18.587Z,6.37
2018-02-12T22:36:46.196Z,5.85
2018-02-12T22:39:13.737Z,5.68
2018-02-12T22:41:41.214Z,5.35
2018-02-12T22:44:08.794Z,6.12
2018-02-12T22:46:36.720Z,6.00
2018-02-12T22:49:05.541Z,6.47
2018-02-12T22:51:33.031Z,6.62
2018-02-12T22:54:00.532Z,6.28
2018-02-12T22:56:28.689Z,6.95
2018-02-12T22:58:56.317Z,6.05
2018-02-12T23:01:23.860Z,6.75
2018-02-12T23:03:51.553Z,6.05
2018-02-12T23:06:19.157Z,7.00
2018-02-12T23:08:46.718Z,6.95
2018-02-12T23:11:14.398Z,6.43
2018-02-12T23:13:42.066Z,6.40
2018-02-12T23:16:10.421Z,6.90
2018-02-12T23:18:37.999Z,6.75
2018-02-12T23:21:05.612Z,6.78
2018-02-12T23:23:33.188Z,5.93
2018-02-12T23:26:01.157Z,6.45
2018-02-12T23:28:29.228Z,6.45
2018-02-12T23:30:56.826Z,5.68
2018-02-12T23:33:24.350Z,7.22
2018-02-12T23:35:52.187Z,6.70
2018-02-12T23:38:19.695Z,6.40
2018-02-12T23:40:47.278Z,6.00
2018-02-12T23:43:15.045Z,5.80
2018-02-12T23:45:42.530Z,7.03
2018-02-12T23:48:10.127Z,5.95
2018-02-12T23:50:37.697Z,6.47
2018-02-12T23:53:05.317Z,6.47
2018-02-12T23:55:32.852Z,5.75
2018-02-12T23:58:00.399Z,6.70
